createdAt,value
2023-02-24T00:01:24.351Z,8.27
2023-02-24T00:04:20.356Z,8.29
2023-02-24T00:07:27.074Z,8.28
2023-02-24T00:10:30.934Z,8.23
2023-02-24T00:13:39.803Z,8.23
2023-02-24T00:16:43.424Z,8.24
2023-02-24T00:19:36.444Z,8.25
2023-02-24T00:22:24.971Z,8.28
2023-02-24T00:25:22.913Z,8.27
2023-02-24T00:28:11.934Z,8.28
2023-02-24T00:31:55.416Z,8.26
2023-02-24T00:34:48.271Z,8.26
2023-02-24T00:38:05.788Z,8.25
2023-02-24T00:41:23.472Z,8.23
2023-02-24T00:44:44.115Z,8.20
2023-02-24T00:48:16.091Z,8.20
2023-02-24T00:51:29.748Z,8.20
2023-02-24T00:55:28.043Z,8.20
2023-02-24T00:59:53.908Z,8.18
2023-02-24T01:02:30.132Z,8.15
2023-02-24T01:06:20.335Z,8.15
2023-02-24T01:14:00.653Z,8.13
2023-02-24T01:31:00.204Z,8.13
2023-02-24T02:17:59.524Z,8.18
2023-02-24T02:21:36.237Z,8.14
2023-02-24T02:25:05.033Z,8.11
2023-02-24T02:29:01.859Z,8.09
2023-02-24T02:32:21.115Z,8.09
2023-02-24T02:35:24.626Z,8.12
2023-02-24T02:38:38.083Z,8.13
2023-02-24T02:42:13.978Z,8.13
2023-02-24T02:45:47.954Z,8.11
2023-02-24T02:49:23.850Z,8.10
2023-02-24T02:53:13.993Z,8.09
2023-02-24T02:56:23.497Z,8.09
2023-02-24T03:03:15.704Z,8.11
2023-02-24T03:07:26.407Z,8.13
2023-02-24T03:10:52.397Z,8.16
2023-02-24T03:14:05.056Z,8.16
2023-02-24T03:25:42.265Z,8.17
2023-02-24T03:29:34.137Z,8.18
2023-02-24T03:52:35.730Z,8.27
2023-02-24T04:06:59.265Z,8.23
2023-02-24T04:11:18.933Z,8.24
2023-02-24T04:15:17.523Z,8.23
2023-02-24T04:47:00.970Z,8.29
2023-02-24T04:49:52.334Z,8.29
2023-02-24T04:53:02.238Z,8.31
2023-02-24T04:55:56.607Z,8.29
2023-02-24T04:58:54.692Z,8.27
2023-02-24T05:02:02.668Z,8.19
2023-02-24T05:04:57.045Z,8.19
2023-02-24T05:08:27.393Z,8.24
2023-02-24T05:14:47.931Z,8.21
2023-02-24T05:18:36.288Z,8.19
2023-02-24T05:21:49.289Z,8.19
2023-02-24T05:24:50.221Z,8.20
2023-02-24T05:27:31.801Z,8.18
2023-02-24T05:30:27.201Z,8.17
2023-02-24T05:33:13.585Z,8.15
2023-02-24T05:36:22.048Z,8.15
2023-02-24T05:39:41.364Z,8.14
2023-02-24T05:42:48.229Z,8.12
2023-02-24T05:46:18.251Z,8.13
2023-02-24T05:49:42.999Z,8.13
2023-02-24T05:52:58.022Z,8.16
2023-02-24T05:55:45.860Z,8.13
2023-02-24T05:58:30.653Z,8.15
2023-02-24T06:01:47.419Z,8.14
2023-02-24T06:05:05.305Z,8.12
2023-02-24T06:08:11.681Z,8.12
2023-02-24T06:10:58.106Z,8.13
2023-02-24T06:13:52.808Z,8.14
2023-02-24T06:17:17.234Z,8.15
2023-02-24T06:20:43.956Z,8.11
2023-02-24T06:23:35.643Z,8.11
2023-02-24T06:26:39.588Z,8.10
2023-02-24T06:30:51.343Z,8.04
2023-02-24T06:33:24.067Z,7.98
2023-02-24T06:36:30.180Z,7.98
2023-02-24T06:39:21.728Z,7.99
2023-02-24T06:42:37.083Z,7.98
2023-02-24T06:48:47.153Z,7.84
2023-02-24T06:51:44.378Z,7.77
2023-02-24T06:54:48.512Z,7.77
2023-02-24T06:58:44.771Z,7.68
2023-02-24T07:05:02.111Z,7.58
2023-02-24T07:08:03.568Z,7.46
2023-02-24T07:11:23.859Z,7.41
2023-02-24T07:15:06.315Z,7.38
2023-02-24T07:18:00.309Z,7.34
2023-02-24T07:21:36.972Z,7.36
2023-02-24T07:24:41.825Z,7.39
2023-02-24T07:28:02.689Z,7.44
2023-02-24T07:30:38.788Z,7.50
2023-02-24T07:33:26.231Z,7.56
2023-02-24T07:36:13.926Z,7.60
2023-02-24T07:38:58.469Z,7.62
2023-02-24T07:41:38.923Z,7.65
2023-02-24T07:44:27.726Z,7.71
2023-02-24T07:47:21.994Z,7.76
2023-02-24T07:50:10.515Z,7.76
2023-02-24T07:53:19.275Z,7.75
2023-02-24T07:55:58.510Z,7.73
2023-02-24T07:58:49.189Z,7.75
2023-02-24T08:01:50.023Z,7.74
2023-02-24T08:04:49.049Z,7.71
2023-02-24T08:07:58.731Z,7.71
2023-02-24T08:10:56.966Z,7.73
2023-02-24T08:13:39.016Z,7.75
2023-02-24T08:16:20.661Z,7.78
2023-02-24T08:19:14.629Z,7.81
2023-02-24T08:21:54.319Z,7.80
2023-02-24T08:24:33.478Z,7.86
2023-02-24T08:27:08.909Z,7.92
2023-02-24T08:29:58.661Z,7.93
2023-02-24T08:32:45.422Z,7.98
2023-02-24T08:35:54.926Z,7.99
2023-02-24T08:38:28.312Z,7.98
2023-02-24T08:41:13.197Z,8.01
2023-02-24T08:43:57.788Z,8.01
2023-02-24T08:46:48.553Z,8.02
2023-02-24T08:49:34.061Z,8.00
2023-02-24T08:52:14.157Z,8.01
2023-02-24T08:55:05.238Z,8.05
2023-02-24T08:58:19.118Z,8.07
2023-02-24T09:00:55.092Z,8.12
2023-02-24T09:03:35.887Z,8.19
2023-02-24T09:06:12.312Z,8.34
2023-02-24T09:09:12.472Z,8.52
2023-02-24T09:11:50.082Z,8.71
2023-02-24T09:14:38.837Z,8.93
2023-02-24T09:17:21.303Z,9.12
2023-02-24T09:20:22.015Z,9.32
2023-02-24T09:23:07.950Z,9.38
2023-02-24T09:25:51.257Z,9.37
2023-02-24T09:28:48.992Z,9.29
2023-02-24T09:32:01.058Z,9.17
2023-02-24T09:34:54.837Z,9.10
2023-02-24T09:37:38.192Z,9.09
2023-02-24T09:40:35.360Z,9.06
2023-02-24T09:43:28.750Z,9.02
2023-02-24T09:46:18.573Z,8.99
2023-02-24T09:49:30.786Z,8.98
2023-02-24T09:52:43.986Z,8.97
2023-02-24T09:56:00.567Z,8.99
2023-02-24T09:59:34.844Z,9.13
2023-02-24T10:02:27.667Z,9.32
2023-02-24T10:05:39.844Z,9.38
2023-02-24T10:08:43.862Z,9.35
2023-02-24T10:11:34.218Z,9.35
2023-02-24T10:14:24.209Z,9.36
2023-02-24T10:17:25.712Z,9.27
2023-02-24T10:20:53.202Z,9.05
2023-02-24T10:24:16.018Z,8.85
2023-02-24T10:27:28.279Z,8.79
2023-02-24T10:30:45.862Z,8.88
2023-02-24T10:33:47.327Z,8.86
2023-02-24T10:36:50.804Z,8.92
2023-02-24T10:39:45.396Z,8.92
2023-02-24T10:43:00.362Z,8.92
2023-02-24T10:46:12.395Z,8.93
2023-02-24T10:49:16.089Z,8.97
2023-02-24T10:52:02.045Z,8.99
2023-02-24T10:55:05.356Z,8.99
2023-02-24T10:57:59.447Z,9.00
2023-02-24T11:01:08.619Z,9.06
2023-02-24T11:04:36.195Z,9.36
2023-02-24T11:07:25.193Z,10.25
2023-02-24T11:10:53.838Z,10.61
2023-02-24T11:13:57.840Z,10.63
2023-02-24T11:17:39.912Z,10.36
2023-02-24T11:20:54.123Z,9.93
2023-02-24T11:23:34.901Z,9.76
2023-02-24T11:26:36.220Z,9.68
2023-02-24T11:29:56.382Z,9.53
2023-02-24T11:33:33.260Z,9.42
2023-02-24T11:36:34.669Z,9.32
2023-02-24T11:39:48.571Z,9.32
2023-02-24T11:42:54.488Z,9.40
2023-02-24T11:46:10.875Z,9.49
2023-02-24T11:49:28.236Z,9.50
2023-02-24T11:52:35.171Z,9.59
2023-02-24T11:55:46.746Z,9.61
2023-02-24T11:59:19.251Z,9.47
2023-02-24T12:02:53.889Z,9.31
2023-02-24T12:05:48.431Z,9.17
2023-02-24T12:08:55.331Z,9.05
2023-02-24T12:12:42.541Z,8.91
2023-02-24T12:15:56.295Z,8.76
2023-02-24T12:19:31.846Z,8.69
2023-02-24T12:22:17.312Z,8.69
2023-02-24T12:24:58.512Z,8.65
2023-02-24T12:32:02.244Z,8.42
2023-02-24T12:34:50.671Z,8.35
2023-02-24T12:37:43.536Z,8.30
2023-02-24T12:40:39.767Z,8.27
2023-02-24T12:43:30.762Z,8.22
2023-02-24T12:46:23.655Z,8.13
2023-02-24T12:49:49.203Z,8.05
2023-02-24T12:53:08.725Z,7.96
2023-02-24T12:56:34.780Z,7.96
2023-02-24T12:59:26.063Z,8.00
2023-02-24T13:03:00.361Z,8.06
2023-02-24T13:05:42.841Z,8.12
2023-02-24T13:08:43.125Z,8.16
2023-02-24T13:12:06.149Z,8.21
2023-02-24T13:15:10.115Z,8.16
2023-02-24T13:18:33.759Z,8.13
2023-02-24T13:22:15.986Z,8.11
2023-02-24T13:28:44.800Z,8.06
2023-02-24T13:32:15.641Z,7.97
2023-02-24T13:35:19.219Z,8.00
2023-02-24T13:41:41.477Z,7.84
2023-02-24T13:44:30.802Z,7.78
2023-02-24T13:47:25.340Z,7.77
2023-02-24T13:50:43.937Z,7.76
2023-02-24T13:54:18.905Z,7.68
2023-02-24T13:57:24.902Z,7.62
2023-02-24T14:00:48.720Z,7.65
2023-02-24T14:03:32.849Z,7.65
2023-02-24T14:06:38.282Z,7.67
2023-02-24T14:09:46.638Z,7.68
2023-02-24T14:12:54.678Z,7.67
2023-02-24T14:15:34.996Z,7.66
2023-02-24T14:18:40.176Z,7.62
2023-02-24T14:21:36.839Z,7.60
2023-02-24T14:24:35.354Z,7.56
2023-02-24T14:27:35.028Z,7.52
2023-02-24T14:30:46.953Z,7.48
2023-02-24T14:34:02.875Z,7.40
2023-02-24T14:37:56.954Z,7.28
2023-02-24T14:41:02.458Z,7.11
2023-02-24T14:44:03.857Z,7.02
2023-02-24T14:47:08.699Z,6.95
2023-02-24T14:54:30.348Z,6.94
2023-02-24T14:57:49.994Z,6.92
2023-02-24T15:00:56.697Z,6.85
2023-02-24T15:03:52.474Z,6.82
2023-02-24T15:06:41.138Z,6.79
2023-02-24T15:09:44.861Z,6.74
2023-02-24T15:13:00.405Z,6.66
2023-02-24T15:16:01.676Z,6.58
2023-02-24T15:19:03.438Z,6.53
2023-02-24T15:22:36.619Z,6.52
2023-02-24T15:25:01.614Z,6.51
2023-02-24T15:27:52.104Z,6.51
2023-02-24T15:30:34.874Z,6.53
2023-02-24T15:33:33.586Z,6.51
2023-02-24T15:36:43.103Z,6.48
2023-02-24T15:39:54.126Z,6.30
2023-02-24T15:42:35.312Z,6.27
2023-02-24T15:49:39.171Z,6.24
2023-02-24T16:01:58.123Z,6.20
2023-02-24T16:05:56.382Z,6.20
2023-02-24T16:49:55.232Z,6.27
2023-02-24T16:53:44.583Z,6.22
2023-02-24T16:57:06.367Z,6.18
2023-02-24T17:00:01.317Z,6.16
2023-02-24T17:03:50.412Z,6.17
2023-02-24T17:07:40.211Z,6.15
2023-02-24T17:14:59.423Z,6.06
2023-02-24T17:32:30.462Z,5.87
2023-02-24T17:35:59.293Z,5.90
2023-02-24T17:38:51.983Z,5.92
2023-02-24T17:41:30.965Z,5.92
2023-02-24T17:44:30.275Z,5.91
2023-02-24T17:47:18.866Z,5.86
2023-02-24T17:50:16.917Z,5.84
2023-02-24T17:53:39.532Z,5.80
2023-02-24T17:56:48.887Z,5.74
2023-02-24T17:59:58.142Z,5.69
2023-02-24T18:02:58.595Z,5.65
2023-02-24T18:06:41.216Z,5.68
2023-02-24T18:13:38.883Z,5.72
2023-02-24T18:34:47.423Z,5.95
2023-02-24T18:37:41.187Z,5.89
2023-02-24T18:40:31.428Z,5.87
2023-02-24T18:43:15.611Z,5.86
2023-02-24T18:46:31.431Z,5.89
2023-02-24T18:49:41.655Z,5.87
2023-02-24T18:52:26.217Z,5.86
2023-02-24T18:55:08.582Z,5.86
2023-02-24T19:00:56.709Z,5.84
2023-02-24T19:03:50.395Z,5.85
2023-02-24T19:06:34.927Z,5.85
2023-02-24T19:10:54.591Z,5.82
2023-02-24T19:14:47.373Z,5.77
2023-02-24T19:17:44.957Z,5.78
2023-02-24T19:20:57.352Z,5.80
2023-02-24T19:24:18.644Z,5.81
2023-02-24T19:27:59.481Z,5.81
2023-02-24T19:32:55.463Z,5.73
2023-02-24T19:36:09.590Z,5.61
2023-02-24T19:39:03.523Z,5.59
2023-02-24T19:45:30.691Z,5.65
2023-02-24T19:48:23.601Z,5.64
2023-02-24T19:51:11.969Z,5.68
2023-02-24T19:54:01.176Z,5.71
2023-02-24T19:57:02.547Z,5.74
2023-02-24T20:00:09.192Z,5.77
2023-02-24T20:03:11.127Z,5.76
2023-02-24T20:06:02.161Z,5.77
2023-02-24T20:08:59.563Z,5.80
2023-02-24T20:12:40.824Z,5.78
2023-02-24T20:16:37.573Z,5.99
2023-02-24T20:19:44.333Z,5.95
2023-02-24T20:22:34.907Z,5.90
2023-02-24T20:26:00.329Z,5.84
2023-02-24T20:29:25.100Z,5.75
2023-02-24T20:32:26.349Z,5.72
2023-02-24T20:35:46.748Z,5.76
2023-02-24T20:39:25.239Z,5.77
2023-02-24T20:42:43.467Z,5.78
2023-02-24T20:49:16.173Z,5.75
2023-02-24T21:05:00.235Z,5.68
2023-02-24T21:08:10.769Z,5.71
2023-02-24T21:20:48.284Z,5.58
2023-02-24T21:23:37.255Z,5.57
2023-02-24T21:26:39.683Z,5.57
2023-02-24T21:30:07.194Z,5.56
2023-02-24T21:33:37.804Z,5.52
2023-02-24T21:37:00.997Z,5.52
2023-02-24T21:40:25.326Z,5.43
2023-02-24T21:47:28.069Z,5.46
2023-02-24T21:51:25.040Z,5.46
2023-02-24T21:54:27.806Z,5.46
2023-02-24T21:58:16.570Z,5.46
2023-02-24T22:06:25.176Z,5.38
2023-02-24T22:10:20.146Z,5.29
2023-02-24T22:16:03.731Z,5.22
2023-02-24T22:19:26.008Z,5.24
2023-02-24T22:22:30.435Z,5.25
2023-02-24T22:25:19.544Z,5.21
2023-02-24T22:46:08.170Z,5.12
2023-02-24T23:23:22.453Z,4.91
2023-02-24T23:27:41.660Z,4.81
2023-02-24T23:30:45.642Z,4.71
2023-02-24T23:33:44.373Z,4.68
2023-02-24T23:36:19.136Z,4.67
2023-02-24T23:40:49.613Z,4.65
2023-02-24T23:43:06.699Z,4.56
2023-02-24T23:46:10.475Z,4.53
2023-02-24T23:48:57.883Z,4.52
2023-02-24T23:51:51.950Z,4.51
2023-02-24T23:57:27.364Z,4.53
